Needham Market, United Kingdom
Current Conditions -  °F | °C
As of 7:50 AM on Saturday 25 Oct 2014 (Local Time) from EGUW Reporting Station
Haze Haze  
Wind Chill: 39°   Ceiling: Unl
Heat Index: 43°   Visibility: 4mi
Dew Point: 41°   Wind: 6mph
Humidity: 93%   Direction: 220°SW
Pressure: 30"   Gusts: NA
Location:  52.16°N, 1.05°E
Report Text: EGUW 250650Z AUTO 22005KT 7000 BR NCD 06/05 Q1016
Loading
Personal Weather Stations






























Interactive Weather Map
Tropical Storm Tracking
New forecast layout! Learn more

10-Day Weather Forecast

Advertisements
Track Severe Weather on mobile